KBKL/BKL METAR and TAF weather

Enter ICAO airport designator
Station Type Date Time Source
KBKL METAR 2019/08/22 01:53 UTC NOAA

KBKL 220153Z 22009KT 10SM CLR 26/19 A2990 RMK AO2 SLP118 T02610194


Station Type Date Time Source
KBKL Decoded METAR 2019/08/22 01:53 UTC NOAA

Station name not available
Aug 21, 2019 - 09:53 PM EDT / 2019.08.22 0153 UTC
Wind: from the SW (220 degrees) at 10 MPH (9 KT):0
Visibility: 10 mile(s):0
Sky conditions: clear
Temperature: 79.0 F (26.1 C)
Dew Point: 66.9 F (19.4 C)
Relative Humidity: 66%
Pressure (altimeter): 29.9 in. Hg (1012 hPa)
ob: KBKL 220153Z 22009KT 10SM CLR 26/19 A2990 RMK AO2 SLP118 T02610194
cycle: 2

Station Type Date Time Source
KBKL TAF UTC NOAA

Error!

Example: see airport list